Time;durP1;ratioP1;P1;durP2;ratioP2;P2;SDS_P1;SDS_P2;PMS_P1;PMS_P2;Temp;Humidity;BMP_temperature;BMP_pressure;BME280_temperature;BME280_humidity;BME280_pressure;Samples;Min_cycle;Max_cycle;Signal;HPM_P1;HPM_P2
2022/08/16 00:00:14;;;;;;;12.63;11.32;;;;;;;21.12;100.00;98708.53;5054380;28;20047;-79
2022/08/16 00:02:40;;;;;;;12.07;10.73;;;;;;;21.04;100.00;98713.78;5054240;28;20127;-78
2022/08/16 00:05:09;;;;;;;12.38;11.07;;;;;;;21.09;100.00;98721.25;5053983;28;20032;-78
2022/08/16 00:07:35;;;;;;;11.13;9.57;;;;;;;21.04;100.00;98720.91;5052965;28;20073;-78
2022/08/16 00:10:00;;;;;;;12.25;10.85;;;;;;;21.00;100.00;98707.16;5036175;28;20589;-78
2022/08/16 00:12:28;;;;;;;11.70;10.60;;;;;;;20.98;100.00;98708.31;5054200;28;20031;-78
2022/08/16 00:14:56;;;;;;;11.07;9.25;;;;;;;20.93;100.00;98704.31;5053834;28;20021;-78
2022/08/16 00:17:21;;;;;;;14.57;11.38;;;;;;;21.01;100.00;98730.00;5054235;28;20025;-78
2022/08/16 00:19:47;;;;;;;12.13;11.02;;;;;;;20.89;100.00;98710.09;5053842;28;20116;-78
2022/08/16 00:22:12;;;;;;;11.70;10.60;;;;;;;20.89;100.00;98710.91;5054346;28;20121;-78
2022/08/16 00:24:37;;;;;;;12.85;10.57;;;;;;;20.89;100.00;98715.38;5053858;28;20051;-78
2022/08/16 00:27:03;;;;;;;12.10;10.75;;;;;;;20.85;100.00;98722.81;5053702;28;20036;-78
2022/08/16 00:29:29;;;;;;;13.02;10.73;;;;;;;20.82;100.00;98722.34;5035811;28;20075;-78
2022/08/16 00:31:55;;;;;;;13.20;11.05;;;;;;;20.79;100.00;98733.22;5053442;28;20024;-78
2022/08/16 00:34:21;;;;;;;12.27;10.98;;;;;;;20.77;100.00;98733.38;5053868;28;20061;-78
2022/08/16 00:36:47;;;;;;;11.95;10.75;;;;;;;20.71;100.00;98725.25;5053722;28;20080;-78
2022/08/16 00:39:14;;;;;;;12.05;10.07;;;;;;;20.68;100.00;98721.91;5053687;28;20396;-78
2022/08/16 00:41:41;;;;;;;12.65;10.85;;;;;;;20.60;100.00;98713.94;5053524;28;20370;-78
2022/08/16 00:44:09;;;;;;;11.55;10.32;;;;;;;20.58;100.00;98718.56;5053258;28;20086;-78
2022/08/16 00:46:48;;;;;;;11.95;10.75;;;;;;;20.55;100.00;98716.22;5053426;28;20036;-78
2022/08/16 00:49:14;;;;;;;14.00;10.68;;;;;;;20.57;100.00;98713.44;5053481;28;20450;-78
2022/08/16 00:51:40;;;;;;;13.05;10.65;;;;;;;20.47;100.00;98705.56;5053551;28;20025;-78
2022/08/16 00:54:06;;;;;;;12.30;11.05;;;;;;;20.40;100.00;98713.34;5053268;28;20043;-78
2022/08/16 00:56:35;;;;;;;12.23;10.48;;;;;;;20.38;100.00;98731.16;5053495;28;20489;-78
2022/08/16 00:59:02;;;;;;;11.82;10.68;;;;;;;20.33;100.00;98722.03;5052908;28;20029;-78
2022/08/16 01:01:27;;;;;;;11.52;10.40;;;;;;;20.29;100.00;98724.16;5053401;28;20515;-78
2022/08/16 01:03:54;;;;;;;16.38;10.90;;;;;;;20.21;100.00;98729.41;5035142;28;20115;-78
2022/08/16 01:06:21;;;;;;;12.57;10.43;;;;;;;20.19;100.00;98731.38;5053019;28;20040;-78
2022/08/16 01:08:55;;;;;;;11.70;10.50;;;;;;;20.21;100.00;98731.22;5035125;28;20032;-78
2022/08/16 01:11:23;;;;;;;11.63;10.43;;;;;;;20.19;100.00;98745.44;5053001;28;20039;-78
2022/08/16 01:13:54;;;;;;;11.52;10.43;;;;;;;20.19;100.00;98744.59;5053124;28;20029;-78
2022/08/16 01:16:23;;;;;;;11.70;10.57;;;;;;;20.01;100.00;98720.81;5052848;28;20025;-78
2022/08/16 01:18:51;;;;;;;11.43;10.23;;;;;;;19.98;100.00;98723.78;5052553;28;20136;-78
2022/08/16 01:21:54;;;;;;;12.32;11.00;;;;;;;20.06;100.00;98747.66;5052858;28;20021;-78
2022/08/16 01:24:41;;;;;;;12.48;11.20;;;;;;;20.01;100.00;98747.25;4971550;28;20080;-78
2022/08/16 01:27:13;;;;;;;12.10;10.90;;;;;;;19.94;100.00;98738.31;4971688;28;20062;-78
2022/08/16 01:30:03;;;;;;;12.70;11.38;;;;;;;19.82;100.00;98736.88;4955330;28;20137;-78
2022/08/16 01:32:32;;;;;;;11.45;10.35;;;;;;;19.82;100.00;98748.28;4971325;28;20131;-78
2022/08/16 01:34:57;;;;;;;11.73;10.70;;;;;;;19.80;100.00;98754.69;4971171;28;20046;-78
2022/08/16 01:37:23;;;;;;;10.77;9.77;;;;;;;19.72;100.00;98738.75;4971445;28;20604;-78
2022/08/16 01:39:48;;;;;;;12.93;10.57;;;;;;;19.70;100.00;98738.91;4971341;28;20054;-78
2022/08/16 01:42:14;;;;;;;12.05;10.90;;;;;;;19.71;100.00;98747.66;4971215;28;20042;-78
2022/08/16 01:44:40;;;;;;;13.95;10.93;;;;;;;19.71;100.00;98743.22;4971281;28;20630;-79
2022/08/16 01:47:08;;;;;;;11.82;10.32;;;;;;;19.63;100.00;98737.84;4971054;28;20115;-78
2022/08/16 01:49:41;;;;;;;11.75;10.40;;;;;;;19.62;100.00;98737.03;4971120;28;20043;-78
2022/08/16 01:52:11;;;;;;;11.38;10.25;;;;;;;19.59;100.00;98737.31;4971097;28;20031;-78
2022/08/16 01:54:37;;;;;;;12.18;10.85;;;;;;;19.60;100.00;98746.06;4971417;28;20097;-78
2022/08/16 01:57:03;;;;;;;12.07;10.30;;;;;;;19.57;100.00;98746.38;4970822;28;20031;-78
2022/08/16 01:59:29;;;;;;;12.48;10.82;;;;;;;19.49;100.00;98733.06;4971050;28;20597;-78
2022/08/16 02:01:56;;;;;;;11.88;10.63;;;;;;;19.54;100.00;98757.22;5030332;28;20053;-78
2022/08/16 02:04:24;;;;;;;11.50;10.10;;;;;;;19.49;100.00;98757.66;5052014;28;20074;-78
2022/08/16 02:06:50;;;;;;;12.32;11.00;;;;;;;19.48;100.00;98749.91;5014953;28;20046;-78
2022/08/16 02:09:18;;;;;;;11.48;10.27;;;;;;;19.43;100.00;98753.00;5012158;28;20094;-78
2022/08/16 02:11:50;;;;;;;14.30;10.95;;;;;;;19.45;100.00;98753.66;5012310;28;20022;-78
2022/08/16 02:14:16;;;;;;;12.70;10.48;;;;;;;19.41;100.00;98755.78;5012045;28;20037;-78
2022/08/16 02:16:43;;;;;;;12.43;11.10;;;;;;;19.36;100.00;98757.22;5012396;28;20038;-78
2022/08/16 02:19:09;;;;;;;12.55;11.13;;;;;;;19.31;100.00;98747.09;5012061;28;20036;-78
2022/08/16 02:21:35;;;;;;;11.73;10.55;;;;;;;19.33;100.00;98757.50;5012246;28;20108;-78
2022/08/16 02:24:00;;;;;;;12.40;11.20;;;;;;;19.27;100.00;98758.09;5011810;28;20109;-78
2022/08/16 02:26:26;;;;;;;11.98;10.82;;;;;;;19.24;100.00;98758.41;5012032;28;20029;-78
2022/08/16 02:28:51;;;;;;;11.50;10.10;;;;;;;19.26;100.00;98774.94;5011448;28;20033;-78
2022/08/16 02:31:16;;;;;;;13.00;11.73;;;;;;;19.24;100.00;98777.69;5012188;28;20062;-78
2022/08/16 02:33:43;;;;;;;11.73;10.23;;;;;;;19.24;100.00;98772.41;5010842;28;20021;-78
2022/08/16 02:36:10;;;;;;;14.75;10.90;;;;;;;19.17;100.00;98766.06;5011810;28;20037;-78
2022/08/16 02:38:38;;;;;;;11.68;10.45;;;;;;;19.09;100.00;98758.91;5011899;28;20032;-78
2022/08/16 02:41:04;;;;;;;11.70;10.50;;;;;;;19.05;100.00;98748.78;5011674;28;20065;-78
2022/08/16 02:43:32;;;;;;;11.45;10.32;;;;;;;19.11;100.00;98761.38;5011874;28;20030;-77
2022/08/16 02:45:58;;;;;;;12.88;10.68;;;;;;;19.10;100.00;98754.44;5011857;28;20033;-78
2022/08/16 02:48:25;;;;;;;11.93;10.80;;;;;;;19.06;100.00;98751.28;5011893;28;20022;-78
2022/08/16 02:50:50;;;;;;;13.05;11.07;;;;;;;18.99;100.00;98741.44;5011971;28;20040;-78
2022/08/16 02:53:16;;;;;;;13.23;11.50;;;;;;;19.03;100.00;98748.91;5011688;28;20104;-78
2022/08/16 02:55:42;;;;;;;12.55;11.25;;;;;;;19.00;100.00;98740.47;5011805;28;20069;-78
2022/08/16 02:58:08;;;;;;;13.18;11.98;;;;;;;18.94;100.00;98744.53;5011711;28;20052;-78
2022/08/16 03:00:34;;;;;;;13.68;11.52;;;;;;;18.97;100.00;98760.06;5010521;28;20038;-78
2022/08/16 03:02:59;;;;;;;12.63;11.32;;;;;;;18.92;100.00;98751.78;5011559;28;20028;-78
2022/08/16 03:05:25;;;;;;;12.75;11.45;;;;;;;18.95;100.00;98756.75;5020396;28;20372;-78
2022/08/16 03:07:51;;;;;;;12.95;11.65;;;;;;;18.99;100.00;98768.66;5051378;28;20113;-78
2022/08/16 03:10:18;;;;;;;13.60;12.20;;;;;;;18.90;100.00;98759.00;5050951;28;20041;-78
2022/08/16 03:12:44;;;;;;;12.02;10.93;;;;;;;18.88;100.00;98767.06;5051463;28;20033;-78
2022/08/16 03:15:13;;;;;;;13.10;11.80;;;;;;;18.79;100.00;98759.16;5051186;28;20032;-78
2022/08/16 03:17:39;;;;;;;12.95;10.85;;;;;;;18.75;100.00;98763.94;5051306;28;20029;-78
2022/08/16 03:20:07;;;;;;;12.52;11.18;;;;;;;18.72;100.00;98764.22;5050974;28;20029;-78
2022/08/16 03:22:33;;;;;;;12.68;11.38;;;;;;;18.76;100.00;98772.66;5051233;28;20029;-78
2022/08/16 03:25:01;;;;;;;13.00;11.75;;;;;;;18.71;100.00;98770.47;5050843;28;20036;-78
2022/08/16 03:27:28;;;;;;;12.65;11.35;;;;;;;18.65;100.00;98768.38;5051722;28;20029;-78
2022/08/16 03:29:53;;;;;;;13.68;12.27;;;;;;;18.62;100.00;98764.19;5051363;28;20057;-78
2022/08/16 03:32:18;;;;;;;12.57;11.32;;;;;;;18.65;100.00;98768.38;5051004;28;20106;-78
2022/08/16 03:34:45;;;;;;;14.43;12.93;;;;;;;18.62;100.00;98768.63;5051405;28;20044;-78
2022/08/16 03:37:11;;;;;;;16.40;12.77;;;;;;;18.61;100.00;98770.44;5050743;28;20473;-78
2022/08/16 03:39:36;;;;;;;14.63;11.52;;;;;;;18.52;100.00;98766.03;5050888;28;20124;-78
2022/08/16 03:42:02;;;;;;;13.82;12.27;;;;;;;18.60;100.00;98784.63;5036134;28;20017;-78
2022/08/16 03:44:27;;;;;;;12.98;11.68;;;;;;;18.54;100.00;98779.94;5054786;28;20029;-78
2022/08/16 03:46:53;;;;;;;12.57;11.43;;;;;;;18.52;100.00;98784.50;5054992;28;20025;-78
2022/08/16 03:49:18;;;;;;;14.05;12.55;;;;;;;18.55;100.00;98788.66;5054373;28;20039;-78
2022/08/16 03:51:44;;;;;;;13.90;12.45;;;;;;;18.52;100.00;98792.41;5054440;28;20116;-78
2022/08/16 03:54:09;;;;;;;14.10;12.68;;;;;;;18.55;100.00;98813.22;5054705;28;20029;-78
2022/08/16 03:56:35;;;;;;;16.13;14.05;;;;;;;18.51;100.00;98797.84;5054600;28;20411;-78
2022/08/16 03:59:00;;;;;;;16.10;13.57;;;;;;;18.55;100.00;98807.97;5054211;28;20047;-78
2022/08/16 04:01:26;;;;;;;13.90;11.93;;;;;;;18.57;100.00;98807.81;5054387;28;20032;-78
2022/08/16 04:03:52;;;;;;;13.13;11.73;;;;;;;18.58;100.00;98815.59;5054267;28;20033;-78
2022/08/16 04:06:18;;;;;;;16.13;11.93;;;;;;;18.60;100.00;98808.34;5054095;28;20056;-78
2022/08/16 04:08:43;;;;;;;13.40;11.82;;;;;;;18.67;100.00;98808.63;5054477;28;20028;-78
2022/08/16 04:11:09;;;;;;;12.75;11.55;;;;;;;18.72;100.00;98810.88;5054075;28;20025;-78
2022/08/16 04:13:34;;;;;;;12.30;11.05;;;;;;;18.88;100.00;98817.19;5054512;28;20560;-78
2022/08/16 04:16:01;;;;;;;12.23;11.00;;;;;;;19.12;100.00;98816.66;5054175;28;20033;-78
2022/08/16 04:18:28;;;;;;;13.70;11.57;;;;;;;19.52;100.00;98809.38;5054039;28;20025;-78
2022/08/16 04:20:53;;;;;;;13.02;11.52;;;;;;;19.73;100.00;98823.16;5053945;28;20537;-78
2022/08/16 04:23:19;;;;;;;12.25;10.98;;;;;;;19.92;100.00;98828.28;5053824;28;20108;-78
2022/08/16 04:25:45;;;;;;;12.13;10.93;;;;;;;19.90;100.00;98821.50;5054080;28;20104;-78
2022/08/16 04:28:12;;;;;;;14.55;12.40;;;;;;;19.97;100.00;98842.88;5053578;28;20151;-78
2022/08/16 04:30:38;;;;;;;12.50;11.20;;;;;;;19.90;100.00;98834.72;5053909;28;20029;-78
2022/08/16 04:33:04;;;;;;;13.65;11.63;;;;;;;19.91;100.00;98854.88;5053532;28;20370;-78
2022/08/16 04:35:30;;;;;;;12.90;11.63;;;;;;;19.88;100.00;98845.44;5053642;28;20036;-78
2022/08/16 04:37:55;;;;;;;13.88;11.32;;;;;;;19.94;100.00;98847.47;5053953;28;20033;-78
2022/08/16 04:40:22;;;;;;;14.07;11.10;;;;;;;20.02;100.00;98856.47;5053806;28;20033;-78
2022/08/16 04:42:49;;;;;;;12.40;11.13;;;;;;;20.13;100.00;98854.41;5053769;28;20089;-78
2022/08/16 04:45:16;;;;;;;13.10;10.98;;;;;;;20.22;100.00;98857.13;5053590;28;20151;-78
2022/08/16 04:47:42;;;;;;;13.00;11.65;;;;;;;20.38;100.00;98858.09;5053520;28;20029;-78
2022/08/16 04:50:23;;;;;;;15.05;11.85;;;;;;;20.70;100.00;98864.66;5053173;28;20037;-78
2022/08/16 04:52:49;;;;;;;;;;;;;;;21.27;100.00;98858.84;5035437;28;20388;-78
2022/08/16 04:55:18;;;;;;;14.02;11.15;;;;;;;21.82;100.00;98845.97;5053271;28;19912;-78
2022/08/16 04:57:47;;;;;;;12.10;10.90;;;;;;;22.97;100.00;98859.28;5053428;28;20029;-78
2022/08/16 05:00:18;;;;;;;11.30;10.13;;;;;;;24.22;98.96;98854.84;5052947;28;20376;-78
2022/08/16 05:02:44;;;;;;;12.32;9.98;;;;;;;25.26;93.40;98867.38;5053222;28;20029;-78
2022/08/16 05:05:11;;;;;;;16.20;10.18;;;;;;;25.33;92.15;98854.13;5052754;28;20025;-79
2022/08/16 05:07:37;;;;;;;10.40;8.80;;;;;;;25.22;91.19;98855.41;5053419;28;20120;-78
2022/08/16 05:10:05;;;;;;;10.75;9.68;;;;;;;25.28;90.65;98857.38;5053154;28;20031;-78
2022/08/16 05:12:30;;;;;;;9.88;8.50;;;;;;;25.44;90.64;98861.66;5052987;28;20032;-79
2022/08/16 05:14:56;;;;;;;10.20;9.20;;;;;;;25.78;89.44;98868.22;5053253;28;20029;-79
2022/08/16 05:17:21;;;;;;;11.65;9.30;;;;;;;26.34;88.11;98874.56;5034674;28;20082;-79
2022/08/16 05:19:48;;;;;;;10.23;8.60;;;;;;;27.51;81.81;98860.56;5052915;28;20112;-79
2022/08/16 05:22:13;;;;;;;8.60;7.60;;;;;;;28.70;75.06;98869.91;5052738;28;20115;-79
2022/08/16 05:24:39;;;;;;;8.52;7.72;;;;;;;29.00;72.55;98878.34;5052776;28;20076;-79
2022/08/16 05:27:04;;;;;;;7.85;7.15;;;;;;;28.56;73.43;98863.72;5052672;28;20413;-79
2022/08/16 05:29:29;;;;;;;7.45;6.68;;;;;;;28.42;73.67;98873.63;5034499;28;20115;-79
2022/08/16 05:31:55;;;;;;;11.38;7.22;;;;;;;28.41;73.16;98871.97;5052512;28;20071;-79
2022/08/16 05:34:20;;;;;;;12.13;7.25;;;;;;;28.45;72.63;98870.53;5052562;28;20037;-79
2022/08/16 05:36:50;;;;;;;9.75;7.28;;;;;;;29.00;71.07;98875.69;5052635;28;20094;-79
2022/08/16 05:39:15;;;;;;;7.85;7.03;;;;;;;30.34;66.69;98874.91;5052290;28;20040;-79
2022/08/16 05:41:40;;;;;;;7.75;6.85;;;;;;;31.58;62.18;98870.41;5052548;28;20021;-79
2022/08/16 05:44:06;;;;;;;7.45;6.63;;;;;;;31.45;61.11;98879.47;5052505;28;20061;-79
2022/08/16 05:46:32;;;;;;;7.28;6.45;;;;;;;30.85;62.90;98878.44;5052101;28;20029;-79
2022/08/16 05:49:02;;;;;;;6.85;6.18;;;;;;;30.40;63.09;98883.97;5052583;28;20056;-78
2022/08/16 05:51:28;;;;;;;6.50;5.90;;;;;;;30.18;64.26;98894.25;5052244;28;20029;-78
2022/08/16 05:53:53;;;;;;;7.68;6.82;;;;;;;30.13;64.32;98894.84;5052518;28;20039;-78
2022/08/16 05:56:18;;;;;;;7.97;6.97;;;;;;;30.94;62.39;98886.00;5052087;28;20025;-79
2022/08/16 05:58:44;;;;;;;7.60;6.97;;;;;;;32.47;58.04;98889.50;5052408;28;20107;-79
2022/08/16 06:01:09;;;;;;;7.90;7.10;;;;;;;32.93;56.32;98901.41;5052127;28;20468;-79
2022/08/16 06:03:36;;;;;;;8.57;6.68;;;;;;;32.26;57.75;98901.59;5051804;28;20102;-79
2022/08/16 06:06:02;;;;;;;7.78;6.78;;;;;;;31.62;59.07;98897.69;5051800;28;20045;-79
2022/08/16 06:08:27;;;;;;;8.35;7.38;;;;;;;31.40;59.68;98887.41;5051763;28;20029;-79
2022/08/16 06:10:53;;;;;;;7.65;6.85;;;;;;;31.43;59.84;98902.25;5052047;28;20029;-79
2022/08/16 06:13:18;;;;;;;12.02;7.05;;;;;;;31.62;59.43;98903.09;5051804;28;20033;-79
2022/08/16 06:15:43;;;;;;;8.38;7.43;;;;;;;31.84;58.81;98895.38;5051963;28;20029;-79
2022/08/16 06:18:09;;;;;;;8.70;7.90;;;;;;;31.85;58.98;98897.81;5051963;28;20099;-79
2022/08/16 06:20:34;;;;;;;8.65;7.93;;;;;;;31.64;59.39;98893.72;5051882;28;20124;-79
2022/08/16 06:22:59;;;;;;;9.65;7.18;;;;;;;31.55;60.05;98901.28;5051878;28;20033;-79
2022/08/16 06:25:26;;;;;;;7.70;7.00;;;;;;;31.61;60.01;98902.25;5051690;28;20653;-79
2022/08/16 06:27:52;;;;;;;11.68;8.10;;;;;;;31.83;59.75;98902.59;5051654;28;20418;-78
2022/08/16 06:30:18;;;;;;;8.57;7.72;;;;;;;31.86;59.54;98898.66;5051440;28;20158;-79
2022/08/16 06:32:43;;;;;;;8.70;7.68;;;;;;;32.03;59.41;98911.28;5051728;28;20017;-79
2022/08/16 06:35:10;;;;;;;10.68;7.10;;;;;;;32.14;59.18;98912.34;5052129;28;20035;-79
2022/08/16 06:37:36;;;;;;;9.60;7.68;;;;;;;32.39;58.69;98914.09;5051845;28;20025;-79
2022/08/16 06:40:03;;;;;;;8.63;7.70;;;;;;;32.79;57.66;98908.88;5051690;28;20553;-79
2022/08/16 06:42:28;;;;;;;10.18;7.88;;;;;;;33.51;56.07;98916.75;5051421;28;20033;-79
2022/08/16 06:44:53;;;;;;;9.30;7.38;;;;;;;33.99;54.77;98923.66;5051633;28;20548;-79
2022/08/16 06:47:19;;;;;;;8.50;7.60;;;;;;;33.97;54.14;98923.91;5051414;28;20079;-79
2022/08/16 06:49:44;;;;;;;7.78;7.05;;;;;;;34.06;54.39;98927.06;5051829;28;20033;-79
2022/08/16 06:52:09;;;;;;;8.05;7.25;;;;;;;34.37;53.35;98931.13;5051704;28;20029;-79
2022/08/16 06:54:35;;;;;;;11.30;7.57;;;;;;;35.83;50.36;98919.22;5051414;28;20032;-79
2022/08/16 06:57:01;;;;;;;8.98;7.88;;;;;;;38.71;44.56;98940.50;5051651;28;20130;-79
2022/08/16 06:59:26;;;;;;;8.32;7.35;;;;;;;41.07;40.46;98936.41;5050993;28;20083;-79
2022/08/16 07:01:52;;;;;;;8.13;7.32;;;;;;;42.99;37.40;98935.16;5052256;28;20029;-80
2022/08/16 07:04:17;;;;;;;8.13;7.32;;;;;;;44.72;34.99;98931.44;5051702;28;20033;-80
2022/08/16 07:06:43;;;;;;;7.75;7.05;;;;;;;46.34;32.38;98932.56;5051480;28;20049;-80
2022/08/16 07:09:10;;;;;;;6.63;6.03;;;;;;;47.69;30.78;98925.63;5051551;28;20025;-80
2022/08/16 07:11:35;;;;;;;7.13;6.53;;;;;;;48.70;29.05;98928.19;5051267;28;20361;-80
2022/08/16 07:14:00;;;;;;;7.25;6.55;;;;;;;49.49;27.78;98931.66;5051433;28;20036;-80
2022/08/16 07:16:26;;;;;;;7.72;6.43;;;;;;;50.26;27.08;98925.28;5053965;28;20028;-80
2022/08/16 07:18:51;;;;;;;6.53;5.93;;;;;;;50.79;26.54;98931.47;5055481;28;20108;-80
2022/08/16 07:21:17;;;;;;;6.93;6.20;;;;;;;51.43;25.88;98938.63;5055146;28;20126;-80
2022/08/16 07:23:45;;;;;;;6.88;5.97;;;;;;;51.91;24.79;98927.44;5055206;28;20036;-80
2022/08/16 07:26:14;;;;;;;6.60;5.87;;;;;;;52.42;24.20;98919.72;5055243;28;20465;-80
2022/08/16 07:28:39;;;;;;;8.80;5.82;;;;;;;52.95;24.02;98922.72;5054961;28;20271;-80
2022/08/16 07:31:04;;;;;;;7.47;5.78;;;;;;;53.52;23.57;98931.13;5055182;28;20033;-80
2022/08/16 07:33:33;;;;;;;7.20;5.80;;;;;;;53.54;23.37;98931.59;5054998;28;20414;-80
2022/08/16 07:35:59;;;;;;;6.55;5.50;;;;;;;53.50;23.25;98928.75;5055028;28;20021;-81
2022/08/16 07:38:26;;;;;;;5.57;5.18;;;;;;;53.66;22.86;98925.81;5054595;28;20043;-80
2022/08/16 07:40:55;;;;;;;5.53;5.10;;;;;;;53.91;23.01;98928.94;5054869;28;20051;-80
2022/08/16 07:43:22;;;;;;;5.68;5.20;;;;;;;54.26;22.52;98920.22;5054809;28;20290;-80
2022/08/16 07:45:48;;;;;;;6.22;5.38;;;;;;;54.44;22.24;98927.97;5054785;28;20029;-80
2022/08/16 07:48:13;;;;;;;5.72;5.13;;;;;;;54.68;22.04;98910.69;5054838;28;20025;-80
2022/08/16 07:50:41;;;;;;;5.63;5.13;;;;;;;54.90;21.31;98913.69;5054436;28;20033;-80
2022/08/16 07:53:06;;;;;;;6.35;5.20;;;;;;;55.03;21.84;98926.13;5054731;28;20029;-80
2022/08/16 07:55:32;;;;;;;6.10;5.50;;;;;;;54.85;21.58;98917.63;5054300;28;20481;-80
2022/08/16 07:57:57;;;;;;;6.40;5.05;;;;;;;54.52;21.71;98930.47;5054489;28;20107;-80
2022/08/16 08:00:23;;;;;;;6.00;5.50;;;;;;;54.76;21.94;98925.50;5054156;28;20036;-80
2022/08/16 08:02:49;;;;;;;6.03;5.43;;;;;;;55.05;21.47;98927.38;5054523;28;20052;-80
2022/08/16 08:05:16;;;;;;;5.63;5.13;;;;;;;55.22;21.13;98919.53;5054343;28;20462;-81
2022/08/16 08:07:41;;;;;;;6.40;5.28;;;;;;;55.11;20.90;98927.00;5054484;28;20033;-80
2022/08/16 08:10:08;;;;;;;5.75;5.25;;;;;;;54.78;21.12;98925.91;5054317;28;20465;-80
2022/08/16 08:12:34;;;;;;;5.88;5.38;;;;;;;54.44;21.38;98919.59;5054308;28;20112;-80
2022/08/16 08:15:00;;;;;;;5.15;4.70;;;;;;;54.42;21.32;98927.56;5054272;28;20396;-80
2022/08/16 08:17:28;;;;;;;5.63;4.80;;;;;;;54.53;21.41;98929.31;5053892;28;20074;-80
2022/08/16 08:19:53;;;;;;;5.43;4.72;;;;;;;54.25;21.79;98937.34;5054166;28;20112;-80
2022/08/16 08:22:21;;;;;;;5.18;4.68;;;;;;;53.57;21.73;98933.66;5053184;28;20118;-80
2022/08/16 08:24:46;;;;;;;9.10;5.37;;;;;;;53.04;22.60;98928.81;5053360;28;20069;-80
2022/08/16 08:27:13;;;;;;;5.20;4.78;;;;;;;51.49;23.09;98922.50;5053293;28;20029;-80
2022/08/16 08:29:40;;;;;;;8.65;5.40;;;;;;;47.71;26.15;98923.38;5054065;28;20029;-80
2022/08/16 08:32:07;;;;;;;6.22;4.90;;;;;;;44.35;29.74;98918.88;5053992;28;20033;-80
2022/08/16 08:34:33;;;;;;;5.47;5.05;;;;;;;41.86;33.51;98919.66;5053471;28;20036;-80
2022/08/16 08:36:58;;;;;;;6.63;5.40;;;;;;;39.96;35.83;98922.50;5053689;28;20028;-80
2022/08/16 08:39:24;;;;;;;5.43;4.97;;;;;;;38.49;38.26;98929.09;5035141;28;20132;-79
2022/08/16 08:41:51;;;;;;;5.40;4.90;;;;;;;37.32;39.98;98930.31;5053626;28;20033;-80
2022/08/16 08:44:17;;;;;;;5.68;5.05;;;;;;;36.38;41.27;98914.66;5053662;28;20488;-79
2022/08/16 08:46:42;;;;;;;5.97;5.38;;;;;;;35.71;43.58;98923.97;5053404;28;20103;-79
2022/08/16 08:49:08;;;;;;;6.15;5.55;;;;;;;35.11;44.48;98922.06;5053604;28;20047;-79
2022/08/16 08:51:34;;;;;;;7.50;5.90;;;;;;;34.66;44.58;98922.97;5053336;28;20479;-79
2022/08/16 08:54:01;;;;;;;7.10;6.45;;;;;;;34.07;45.13;98925.16;5053414;28;20489;-79
2022/08/16 08:56:28;;;;;;;8.32;5.82;;;;;;;33.47;47.63;98921.81;5053415;28;20399;-79
2022/08/16 08:58:54;;;;;;;6.85;6.25;;;;;;;33.31;48.47;98936.00;5053472;28;20484;-79
2022/08/16 09:01:25;;;;;;;6.35;5.75;;;;;;;33.07;48.81;98921.69;5053190;28;20025;-79
2022/08/16 09:03:50;;;;;;;6.93;6.32;;;;;;;32.78;47.84;98931.50;5053316;28;20028;-79
2022/08/16 09:06:16;;;;;;;7.32;6.10;;;;;;;32.37;48.64;98927.78;5053129;28;20045;-79
2022/08/16 09:08:43;;;;;;;6.40;5.80;;;;;;;32.14;49.49;98920.44;5052918;28;20070;-79
2022/08/16 09:11:08;;;;;;;9.57;6.43;;;;;;;32.09;50.60;98932.94;5053300;28;20036;-79
2022/08/16 09:13:34;;;;;;;8.88;6.05;;;;;;;32.02;51.87;98939.22;5053045;28;20025;-79
2022/08/16 09:16:00;;;;;;;6.75;6.15;;;;;;;31.98;51.63;98945.31;5035207;28;20056;-79
2022/08/16 09:18:28;;;;;;;7.43;6.47;;;;;;;31.96;51.85;98947.41;5052749;28;20110;-79
2022/08/16 09:20:54;;;;;;;7.82;6.03;;;;;;;31.91;51.08;98948.09;5052997;28;20057;-79
2022/08/16 09:23:20;;;;;;;9.95;6.18;;;;;;;31.58;51.09;98953.03;5052149;28;20031;-79
2022/08/16 09:25:47;;;;;;;9.88;6.85;;;;;;;31.41;51.62;98952.81;5052773;28;20032;-79
2022/08/16 09:28:12;;;;;;;6.95;6.35;;;;;;;31.15;51.92;98943.94;5052869;28;20035;-79
2022/08/16 09:30:38;;;;;;;7.65;6.75;;;;;;;31.12;52.31;98946.22;5052521;28;20037;-79
2022/08/16 09:33:05;;;;;;;9.93;7.00;;;;;;;31.16;52.14;98948.25;5052757;28;20053;-79
2022/08/16 09:35:31;;;;;;;8.07;6.57;;;;;;;31.13;52.29;98937.94;5052426;28;20025;-79
2022/08/16 09:37:56;;;;;;;6.57;6.00;;;;;;;31.21;52.46;98942.22;5052678;28;20496;-79
2022/08/16 09:40:22;;;;;;;6.82;6.13;;;;;;;31.19;51.06;98950.50;5052555;28;20051;-79
2022/08/16 09:42:48;;;;;;;6.97;6.38;;;;;;;31.26;51.96;98945.88;5052665;28;20083;-79
2022/08/16 09:45:14;;;;;;;8.77;5.82;;;;;;;31.25;52.42;98948.78;5052449;28;20033;-79
2022/08/16 09:47:40;;;;;;;9.27;5.68;;;;;;;31.16;52.10;98948.25;5052400;28;20024;-79
2022/08/16 09:50:07;;;;;;;6.60;5.90;;;;;;;31.14;51.92;98941.44;5052553;28;20420;-79
2022/08/16 09:52:34;;;;;;;8.65;6.45;;;;;;;31.06;51.35;98947.94;5052546;28;20100;-79
2022/08/16 09:55:02;;;;;;;6.45;5.85;;;;;;;30.99;52.71;98947.19;5052630;28;20036;-79
2022/08/16 09:57:28;;;;;;;6.43;5.82;;;;;;;31.04;53.42;98944.66;5052252;28;20108;-79
2022/08/16 09:59:53;;;;;;;6.63;5.90;;;;;;;31.15;53.44;98938.53;5052330;28;20115;-79
2022/08/16 10:02:18;;;;;;;6.93;6.20;;;;;;;31.28;52.07;98948.34;5052234;28;20423;-79
2022/08/16 10:04:44;;;;;;;8.20;6.28;;;;;;;31.14;50.86;98949.50;5033880;28;20040;-79
2022/08/16 10:07:09;;;;;;;6.88;6.18;;;;;;;30.86;50.69;98947.31;5051873;28;20049;-79
2022/08/16 10:09:34;;;;;;;6.65;6.05;;;;;;;30.60;50.71;98938.38;5052019;28;20040;-79
2022/08/16 10:14:44;;;;;;;6.10;5.50;;;;;;;30.24;51.96;98949.75;5051857;28;20171;-79
2022/08/16 10:17:11;;;;;;;10.95;6.57;;;;;;;30.24;51.25;98955.13;5051966;28;20029;-79
2022/08/16 10:19:37;;;;;;;7.13;6.00;;;;;;;30.22;51.87;98960.75;5051936;28;20372;-79
2022/08/16 10:22:02;;;;;;;6.78;5.70;;;;;;;30.18;51.16;98951.47;5052070;28;20028;-79
2022/08/16 10:24:28;;;;;;;6.20;5.60;;;;;;;30.28;52.51;98948.28;5052024;28;20052;-79
2022/08/16 10:26:56;;;;;;;7.45;5.88;;;;;;;30.25;51.42;98948.72;5051959;28;20051;-79
2022/08/16 10:29:22;;;;;;;6.70;6.10;;;;;;;30.23;50.91;98948.13;5051901;28;20119;-79
2022/08/16 10:31:47;;;;;;;9.02;5.82;;;;;;;30.27;51.89;98946.66;5048288;28;20125;-79
2022/08/16 10:34:13;;;;;;;9.63;6.10;;;;;;;30.44;52.16;98955.03;5051197;28;20036;-79
2022/08/16 10:36:39;;;;;;;6.65;5.90;;;;;;;30.50;51.17;98952.28;5051673;28;20032;-79
2022/08/16 10:39:04;;;;;;;7.28;6.32;;;;;;;30.39;50.53;98947.63;5051830;28;20059;-79
2022/08/16 10:41:30;;;;;;;6.72;6.05;;;;;;;30.31;51.56;98943.31;5051603;28;20053;-79
2022/08/16 10:43:55;;;;;;;7.47;6.40;;;;;;;30.47;53.64;98947.34;5052014;28;20036;-79
2022/08/16 10:46:21;;;;;;;7.10;6.38;;;;;;;30.69;52.78;98963.13;5051637;28;20021;-79
2022/08/16 10:48:46;;;;;;;7.57;5.95;;;;;;;30.62;51.57;98956.97;5051653;28;20029;-79
2022/08/16 10:51:12;;;;;;;7.93;7.13;;;;;;;30.49;50.57;98953.31;5054145;28;20025;-79
2022/08/16 10:53:38;;;;;;;7.95;6.10;;;;;;;30.57;51.89;98960.31;5055519;28;20029;-79
2022/08/16 10:56:07;;;;;;;9.05;6.10;;;;;;;30.66;52.01;98953.63;5071229;28;20021;-79
2022/08/16 10:58:33;;;;;;;6.93;5.97;;;;;;;30.75;51.04;98948.81;5055400;28;20052;-79
2022/08/16 11:00:59;;;;;;;7.50;5.63;;;;;;;30.81;51.81;98946.09;5055574;28;20360;-79
2022/08/16 11:03:27;;;;;;;6.38;5.78;;;;;;;30.93;51.04;98956.97;5055795;28;20033;-79
2022/08/16 11:05:53;;;;;;;6.07;5.47;;;;;;;30.98;51.94;98950.91;5037714;28;20370;-79
2022/08/16 11:08:18;;;;;;;6.28;5.45;;;;;;;31.03;51.85;98956.47;5055708;28;20108;-79
2022/08/16 11:10:45;;;;;;;6.43;5.70;;;;;;;31.11;51.69;98961.56;5055415;28;20100;-79
2022/08/16 11:13:13;;;;;;;6.25;5.65;;;;;;;31.08;49.56;98956.59;5055508;28;20495;-79
2022/08/16 11:15:42;;;;;;;7.22;6.20;;;;;;;31.06;50.19;98950.63;5055131;28;20063;-79
2022/08/16 11:18:08;;;;;;;6.80;5.68;;;;;;;31.03;50.94;98938.44;5055509;28;20017;-79
2022/08/16 11:20:33;;;;;;;6.10;5.50;;;;;;;31.09;50.41;98946.66;5055228;28;20362;-79